createdAt,value
2018-12-17T00:04:21.189Z,47.53
2018-12-17T00:09:26.032Z,45.20
2018-12-17T00:14:29.042Z,53.10
2018-12-17T00:19:31.711Z,46.43
2018-12-17T00:24:34.595Z,46.47
2018-12-17T00:29:37.313Z,47.60
2018-12-17T00:34:40.292Z,47.63
2018-12-17T00:39:43.005Z,44.67
2018-12-17T00:44:45.777Z,48.47
2018-12-17T00:49:48.673Z,45.93
2018-12-17T00:54:51.455Z,46.10
2018-12-17T00:59:54.158Z,48.13
2018-12-17T01:04:56.953Z,45.03
2018-12-17T01:09:59.946Z,47.67
2018-12-17T01:15:04.172Z,45.70
2018-12-17T01:20:07.816Z,48.00
2018-12-17T01:25:10.766Z,45.63
2018-12-17T01:30:13.817Z,49.40
2018-12-17T01:35:16.632Z,45.90
2018-12-17T01:40:19.574Z,47.33
2018-12-17T01:45:22.597Z,50.17
2018-12-17T01:50:25.435Z,49.20
2018-12-17T01:55:28.213Z,45.57
2018-12-17T02:00:31.047Z,48.53
2018-12-17T02:05:33.901Z,47.43
2018-12-17T02:10:36.800Z,46.33
2018-12-17T02:15:40.373Z,49.23
2018-12-17T02:20:43.040Z,46.77
2018-12-17T02:25:45.962Z,52.37
2018-12-17T02:30:48.935Z,46.80
2018-12-17T02:35:51.669Z,51.20
2018-12-17T02:40:54.292Z,50.73
2018-12-17T02:45:57.131Z,46.50
2018-12-17T02:50:59.997Z,45.60
2018-12-17T02:56:03.070Z,49.83
2018-12-17T03:01:06.858Z,47.20
2018-12-17T03:06:11.032Z,47.93
2018-12-17T03:11:13.918Z,48.00
2018-12-17T03:16:16.616Z,46.40
2018-12-17T03:21:19.456Z,46.53
2018-12-17T03:26:22.591Z,45.77
2018-12-17T03:31:25.697Z,48.43
2018-12-17T03:36:28.664Z,44.53
2018-12-17T03:41:31.591Z,48.67
2018-12-17T03:46:34.640Z,48.20
2018-12-17T03:51:37.425Z,53.07
2018-12-17T03:56:40.566Z,49.53
2018-12-17T04:01:43.398Z,49.00
2018-12-17T04:06:46.285Z,48.50
2018-12-17T04:11:48.977Z,46.83
2018-12-17T04:16:51.764Z,42.63
2018-12-17T04:21:54.521Z,43.93
2018-12-17T04:26:58.213Z,45.53
2018-12-17T04:32:01.084Z,46.40
2018-12-17T04:37:04.322Z,44.13
2018-12-17T04:42:08.077Z,46.27
2018-12-17T04:47:10.973Z,51.90
2018-12-17T04:52:13.733Z,48.57
2018-12-17T04:57:16.606Z,47.50
2018-12-17T05:02:19.396Z,46.17
2018-12-17T05:07:22.540Z,51.17
2018-12-17T05:12:25.514Z,47.03
2018-12-17T05:17:28.277Z,50.33
2018-12-17T05:22:31.081Z,50.63
2018-12-17T05:27:33.952Z,47.10
2018-12-17T05:32:36.801Z,50.10
2018-12-17T05:37:39.571Z,50.00
2018-12-17T05:42:42.506Z,53.00
2018-12-17T05:47:45.336Z,43.93
2018-12-17T05:52:48.151Z,46.17
2018-12-17T05:57:50.759Z,46.87
2018-12-17T06:02:53.589Z,47.67
2018-12-17T06:07:56.329Z,47.17
2018-12-17T06:12:59.068Z,46.30
2018-12-17T06:18:02.054Z,50.07
2018-12-17T06:23:05.010Z,47.57
2018-12-17T06:28:08.106Z,50.57
2018-12-17T06:33:15.637Z,47.30
2018-12-17T06:38:16.888Z,46.93
2018-12-17T06:43:20.063Z,49.80
2018-12-17T06:48:22.963Z,54.63
2018-12-17T06:53:25.805Z,53.73
2018-12-17T06:58:29.397Z,52.43
2018-12-17T07:03:32.251Z,57.70
2018-12-17T07:08:35.078Z,54.23
2018-12-17T07:13:37.752Z,53.33
2018-12-17T07:18:40.465Z,52.43
2018-12-17T07:23:43.240Z,49.77
2018-12-17T07:28:45.984Z,50.83
2018-12-17T07:33:48.879Z,46.33
2018-12-17T07:38:52.020Z,50.47
2018-12-17T07:43:55.145Z,52.50
2018-12-17T07:48:58.133Z,54.37
2018-12-17T07:54:01.014Z,50.03
2018-12-17T07:59:03.893Z,47.17
2018-12-17T08:04:06.741Z,47.60
2018-12-17T08:09:09.609Z,46.17
2018-12-17T08:14:12.509Z,46.97
2018-12-17T08:19:15.216Z,44.77
2018-12-17T08:24:18.119Z,53.23
2018-12-17T08:29:20.913Z,49.20
2018-12-17T08:34:23.819Z,49.30
2018-12-17T08:39:26.650Z,44.60
2018-12-17T08:44:29.545Z,47.30
2018-12-17T08:49:32.597Z,51.80
2018-12-17T08:54:35.350Z,47.83
2018-12-17T08:59:38.002Z,47.33
2018-12-17T09:04:41.098Z,45.80
2018-12-17T09:09:44.071Z,45.37
2018-12-17T09:14:46.935Z,47.37
2018-12-17T09:19:49.726Z,46.90
2018-12-17T09:24:52.742Z,49.80
2018-12-17T09:29:55.648Z,45.03
2018-12-17T09:34:58.425Z,49.00
2018-12-17T09:40:01.554Z,44.30
2018-12-17T09:45:07.220Z,51.17
2018-12-17T09:50:10.079Z,46.77
2018-12-17T09:55:12.936Z,47.27
2018-12-17T10:00:15.829Z,46.37
2018-12-17T10:05:18.781Z,49.13
2018-12-17T10:10:21.836Z,47.57
2018-12-17T10:15:25.003Z,51.13
2018-12-17T10:20:27.881Z,51.27
2018-12-17T10:25:30.773Z,49.83
2018-12-17T10:30:33.575Z,50.17
2018-12-17T10:35:36.527Z,48.17
2018-12-17T10:40:39.573Z,51.70
2018-12-17T10:45:42.574Z,48.07
2018-12-17T10:50:45.690Z,54.50
2018-12-17T10:55:48.392Z,49.57
2018-12-17T11:00:57.127Z,51.17
2018-12-17T11:06:04.170Z,56.00
2018-12-17T11:11:07.165Z,55.80
2018-12-17T11:16:10.290Z,51.63
2018-12-17T11:21:13.004Z,49.23
2018-12-17T11:26:15.667Z,51.17
2018-12-17T11:31:18.523Z,50.87
2018-12-17T11:36:21.545Z,47.73
2018-12-17T11:41:24.308Z,46.30
2018-12-17T11:46:27.226Z,46.90
2018-12-17T11:51:30.194Z,49.10
2018-12-17T12:02:14.570Z,47.75
2018-12-17T12:07:17.402Z,44.50
2018-12-17T12:12:20.361Z,41.60
2018-12-17T12:17:23.341Z,42.43
2018-12-17T12:22:26.049Z,38.83
2018-12-17T12:27:29.455Z,41.87
2018-12-17T12:32:32.415Z,40.93
2018-12-17T12:37:35.532Z,43.93
2018-12-17T12:42:38.465Z,41.73
2018-12-17T12:47:41.401Z,41.67
2018-12-17T12:52:44.532Z,36.90
2018-12-17T12:57:47.434Z,37.60
2018-12-17T13:02:50.310Z,38.90
2018-12-17T13:07:53.106Z,41.53
2018-12-17T13:12:55.937Z,44.63
2018-12-17T13:17:59.538Z,41.73
2018-12-17T13:23:02.395Z,47.30
2018-12-17T13:28:05.404Z,43.57
2018-12-17T13:33:08.268Z,47.00
2018-12-17T13:38:11.316Z,46.83
2018-12-17T13:43:14.197Z,50.00
2018-12-17T13:53:31.708Z,52.63
2018-12-17T13:58:35.352Z,52.13
2018-12-17T14:03:38.225Z,52.43
2018-12-17T14:08:41.182Z,50.17
2018-12-17T14:13:44.194Z,58.00
2018-12-17T14:18:52.990Z,56.93
2018-12-17T14:23:55.847Z,51.47
2018-12-17T14:28:58.586Z,48.50
2018-12-17T14:34:01.411Z,55.47
2018-12-17T14:39:06.956Z,54.97
2018-12-17T14:44:17.566Z,50.23
2018-12-17T14:49:20.396Z,48.57
2018-12-17T14:54:23.362Z,51.70
2018-12-17T14:59:26.240Z,52.13
2018-12-17T15:04:29.302Z,49.33
2018-12-17T15:09:31.970Z,54.00
2018-12-17T15:14:34.584Z,51.10
2018-12-17T15:19:37.538Z,50.13
2018-12-17T15:24:40.699Z,52.93
2018-12-17T15:29:43.557Z,55.43
2018-12-17T15:34:46.251Z,54.87
2018-12-17T15:39:49.131Z,52.47
2018-12-17T15:44:55.482Z,58.73
2018-12-17T15:49:58.058Z,52.13
2018-12-17T15:55:02.488Z,54.90
2018-12-17T16:00:10.162Z,48.73
2018-12-17T16:05:13.025Z,53.93
2018-12-17T16:10:15.788Z,50.53
2018-12-17T16:15:18.649Z,53.77
2018-12-17T16:20:21.661Z,47.90
2018-12-17T16:25:24.846Z,45.33
2018-12-17T16:30:27.678Z,42.93
2018-12-17T16:35:30.517Z,43.33
2018-12-17T16:40:33.860Z,40.87
2018-12-17T16:45:37.029Z,40.33
2018-12-17T16:50:40.290Z,41.97
2018-12-17T16:55:44.505Z,45.77
2018-12-17T17:00:47.417Z,39.27
2018-12-17T17:05:50.393Z,42.93
2018-12-17T17:10:53.472Z,41.10
2018-12-17T17:15:56.661Z,40.53
2018-12-17T17:20:59.494Z,39.73
2018-12-17T17:26:02.589Z,42.67
2018-12-17T17:31:05.560Z,44.80
2018-12-17T17:36:08.477Z,42.73
2018-12-17T17:41:11.405Z,40.60
2018-12-17T17:46:14.154Z,40.30
2018-12-17T17:51:17.288Z,42.50
2018-12-17T17:56:20.201Z,37.30
2018-12-17T18:01:23.073Z,39.43
2018-12-17T18:06:25.923Z,41.70
2018-12-17T18:11:28.824Z,33.90
2018-12-17T18:16:31.870Z,38.10
2018-12-17T18:21:34.775Z,36.13
2018-12-17T18:26:37.619Z,40.67
2018-12-17T18:31:40.496Z,40.13
2018-12-17T18:36:43.682Z,38.57
2018-12-17T18:41:46.589Z,41.27
2018-12-17T18:46:52.513Z,42.20
2018-12-17T18:51:55.512Z,50.37
2018-12-17T18:57:01.470Z,45.27
2018-12-17T19:02:04.543Z,44.43
2018-12-17T19:07:07.493Z,49.63
2018-12-17T19:12:10.401Z,51.27
2018-12-17T19:17:13.516Z,53.13
2018-12-17T19:22:16.381Z,55.33
2018-12-17T19:27:19.525Z,55.20
2018-12-17T19:32:22.478Z,52.17
2018-12-17T19:37:25.410Z,54.17
2018-12-17T19:42:28.311Z,54.33
2018-12-17T19:47:31.197Z,52.97
2018-12-17T19:52:34.152Z,52.10
2018-12-17T19:57:37.116Z,55.00
2018-12-17T20:02:46.851Z,53.80
2018-12-17T20:07:44.938Z,54.03
2018-12-17T20:12:47.671Z,53.60
2018-12-17T20:17:50.518Z,48.53
2018-12-17T20:22:53.249Z,48.67
2018-12-17T20:27:55.914Z,49.20
2018-12-17T20:38:11.318Z,50.03
2018-12-17T20:43:14.089Z,49.70
2018-12-17T20:48:17.020Z,54.80
2018-12-17T20:53:20.209Z,58.10
2018-12-17T20:58:23.121Z,54.03
2018-12-17T21:03:26.014Z,50.43
2018-12-17T21:08:28.654Z,53.53
2018-12-17T21:13:31.545Z,50.47
2018-12-17T21:18:34.386Z,55.70
2018-12-17T21:23:37.580Z,52.70
2018-12-17T21:28:40.310Z,55.30
2018-12-17T21:33:43.023Z,54.13
2018-12-17T21:38:45.725Z,51.50
2018-12-17T21:43:48.719Z,49.43
2018-12-17T21:48:51.669Z,53.00
2018-12-17T21:53:54.438Z,48.63
2018-12-17T21:58:57.550Z,51.43
2018-12-17T22:04:00.376Z,50.10
2018-12-17T22:09:05.828Z,48.60
2018-12-17T22:14:10.676Z,50.87
2018-12-17T22:19:14.837Z,45.40
2018-12-17T22:24:17.846Z,49.70
2018-12-17T22:29:21.442Z,49.80
2018-12-17T22:34:25.334Z,48.10
2018-12-17T22:39:28.126Z,47.00
2018-12-17T22:44:31.183Z,47.10
2018-12-17T22:49:34.238Z,43.57
2018-12-17T22:54:37.094Z,46.37
2018-12-17T22:59:39.905Z,43.77
2018-12-17T23:04:42.765Z,46.13
2018-12-17T23:10:03.168Z,45.03
2018-12-17T23:15:23.541Z,45.03
2018-12-17T23:20:26.471Z,45.70
2018-12-17T23:25:31.503Z,45.63
2018-12-17T23:30:35.863Z,46.83
2018-12-17T23:35:38.687Z,42.33
2018-12-17T23:40:41.298Z,46.77
2018-12-17T23:45:51.171Z,50.97
2018-12-17T23:50:54.274Z,48.83
2018-12-17T23:55:57.127Z,44.87
